Airfield :
LOGIN :

Register | Disclaimer

   EN    FR    IT 

 










Legend :    VFR   Marginal VFR   IFR   Intensive IFR   Very Intensive IFR
Visi :
Ceiling :
>= 8 km
>= 3000ft
5 to 8 km
1000 to 3000 ft
1500m to 5 km
500 to 1000 ft
800 to 1500m
200 to 500 ft
< 800m
< 200 ft
Symbols :   Thunderstorms  Fog  Heavy snow  Heavy precipitations  Wind > 20 kt
SIGMETs :     Misc.  Thunderstorms  Icing  Turbulence  Mountain Waves  Volcanic Ashes







- Airport Elevation : 31 ft
- IATA code : INV
- Download approach charts


EGPE - Inverness

CURRENT METAR :
  • 240020Z AUTO 10013KT 9999 NCD 10/05 Q1000

EXPIRED METARs :
  • 232350Z AUTO 01007KT 9999 NCD 08/05 Q1001
  • 232320Z AUTO 08005KT 020V110 9999 NCD 08/05 Q1001
  • 232250Z AUTO 09007KT 9999 NCD 09/05 Q1001
  • 232220Z AUTO VRB01KT 9999 NCD 09/05 Q1002
  • 232150Z AUTO VRB02KT 9999 NCD 10/05 Q1002

TAF TAF EGPE
Valid from the 24 at 00:00 until the 24 at 09:00 UTC


232302Z 2400/2409 11008KT 9999 FEW040
BECMG 2400/2403 05012KT
TEMPO 2400/2406 6000
PROB30
TEMPO 2405/2409 BKN014
ATIS : +44 1667 464 255
No reported NOTAMs for that airfield.



MET'MAP, your aeronautical weather chart ! - Copyright ORBIFLY December 2007 - Disclaimer

ORBIFLY MET'MAP TEAM :

Programming & Development : Alexandra Zaïnal
Concept & Development : Baudouin d'Aumeries
Co-Development & Prog : Marc-Olivier Méhu
Technical & hardware support : Manuel Goepfert

Contact : metmap@orbifly.com




SOURCES & CREDITS :

   NOAA